Terminal Aerodrome Forecast
Issued by NWS Flagstaff, AZ

Home | Current Version | Previous Version | Text Only | Print | Product List | Glossary On
Versions: 1 2 3 4 5 6 7 8 9 10 11 12 13
213
FTUS45 KFGZ 042323
TAFINW
TAF
KINW 042323Z 0500/0524 17010G20KT P6SM SCT250
     FM050300 15005KT P6SM SCT250
     FM051600 18020G30KT P6SM SCT250=

USA.gov is the U.S. government's official web portal to all federal, state and local government web resources and services.